CXA096 ZSPD-ZGGG
Flight info
| Callsign | CXA096 |
|---|---|
| Flight time | N/A |
| Altitude | 40100 |
| Route | NXD91D NXD W131 AKDIM A470 DUBGO W134 ELNEX A599 PLT W19 OLPAB OLPAB3P |
| Aircraft | MD11/H-SDE1E2E3FGHIJ2J3J4J5M1RWXY/LB1D1 |
Departure
| Time | 2026-04-30 09:55 |
|---|---|
| Airport | Shanghai Pudong International Airport (ZSPD) |
Arrival
| Time | N/A |
|---|---|
| Airport | Guangzhou Baiyun International Airport (ZGGG) |
| Time | Latitude | Longitude | Altitude | Speed | Heading |
|---|---|---|---|---|---|
| 2026-04-30 09:35 | 31.13090 | 121.80604 | 29 ft | 0 kts | 314° |
| 2026-04-30 09:46 | 31.13087 | 121.80608 | 30 ft | 2 kts | 314° |
| 2026-04-30 09:46 | 31.13075 | 121.80621 | 27 ft | 2 kts | 316° |
| 2026-04-30 09:46 | 31.13064 | 121.80634 | 27 ft | 2 kts | 316° |
| 2026-04-30 09:47 | 31.13052 | 121.80647 | 28 ft | 2 kts | 316° |
| 2026-04-30 09:47 | 31.13041 | 121.80661 | 28 ft | 2 kts | 318° |
| 2026-04-30 09:47 | 31.13028 | 121.80672 | 29 ft | 2 kts | 288° |
| 2026-04-30 09:47 | 31.13026 | 121.80691 | 29 ft | 2 kts | 243° |
| 2026-04-30 09:48 | 31.13030 | 121.80699 | 30 ft | 0 kts | 244° |
| 2026-04-30 09:50 | 31.13027 | 121.80692 | 29 ft | 5 kts | 244° |
| 2026-04-30 09:50 | 31.12999 | 121.80625 | 28 ft | 11 kts | 244° |
| 2026-04-30 09:50 | 31.12979 | 121.80554 | 30 ft | 9 kts | 254° |
| 2026-04-30 09:51 | 31.12962 | 121.80483 | 30 ft | 9 kts | 253° |
| 2026-04-30 09:51 | 31.12942 | 121.80409 | 30 ft | 10 kts | 253° |
| 2026-04-30 09:51 | 31.12922 | 121.80331 | 30 ft | 10 kts | 251° |
| 2026-04-30 09:51 | 31.12898 | 121.80253 | 30 ft | 11 kts | 251° |
| 2026-04-30 09:52 | 31.12878 | 121.80197 | 30 ft | 7 kts | 238° |
| 2026-04-30 09:52 | 31.12861 | 121.80180 | 30 ft | 2 kts | 206° |
| 2026-04-30 09:52 | 31.12847 | 121.80172 | 30 ft | 3 kts | 206° |
| 2026-04-30 09:52 | 31.12840 | 121.80171 | 30 ft | 2 kts | 188° |
| 2026-04-30 09:53 | 31.12815 | 121.80169 | 30 ft | 1 kts | 190° |
| 2026-04-30 09:53 | 31.12810 | 121.80167 | 30 ft | 0 kts | 192° |
| 2026-04-30 09:53 | 31.12806 | 121.80165 | 30 ft | 4 kts | 199° |
| 2026-04-30 09:53 | 31.12771 | 121.80110 | 29 ft | 10 kts | 243° |
| 2026-04-30 09:54 | 31.12749 | 121.80044 | 31 ft | 8 kts | 252° |
| 2026-04-30 09:54 | 31.12732 | 121.79980 | 31 ft | 9 kts | 252° |
| 2026-04-30 09:54 | 31.12731 | 121.79917 | 30 ft | 10 kts | 284° |
| 2026-04-30 09:54 | 31.12820 | 121.79847 | 30 ft | 23 kts | 341° |
| 2026-04-30 09:55 | 31.13121 | 121.79735 | 29 ft | 95 kts | 342° |
| 2026-04-30 09:55 | 31.14177 | 121.79369 | 303 ft | 201 kts | 345° |
| 2026-04-30 09:55 | 31.15598 | 121.78901 | 1019 ft | 208 kts | 342° |
| 2026-04-30 09:55 | 31.16857 | 121.78416 | 2365 ft | 173 kts | 339° |
| 2026-04-30 09:56 | 31.17873 | 121.77936 | 2931 ft | 152 kts | 338° |
| 2026-04-30 09:56 | 31.18825 | 121.77527 | 2812 ft | 138 kts | 342° |
| 2026-04-30 09:56 | 31.19746 | 121.77183 | 2946 ft | 140 kts | 341° |
| 2026-04-30 09:56 | 31.20678 | 121.76831 | 2941 ft | 141 kts | 341° |
| 2026-04-30 09:57 | 31.21645 | 121.76466 | 3384 ft | 150 kts | 341° |
| 2026-04-30 09:57 | 31.22739 | 121.76051 | 4462 ft | 192 kts | 341° |
| 2026-04-30 09:57 | 31.24204 | 121.75492 | 4723 ft | 246 kts | 342° |
| 2026-04-30 09:57 | 31.25859 | 121.74864 | 5579 ft | 251 kts | 342° |
| 2026-04-30 09:58 | 31.27525 | 121.74231 | 6553 ft | 251 kts | 341° |
| 2026-04-30 09:58 | 31.29195 | 121.73597 | 7385 ft | 254 kts | 341° |
| 2026-04-30 09:58 | 31.30889 | 121.72951 | 8174 ft | 256 kts | 340° |
| 2026-04-30 09:58 | 31.32448 | 121.71964 | 8863 ft | 257 kts | 317° |
| 2026-04-30 09:59 | 31.33685 | 121.68138 | 10228 ft | 268 kts | 272° |
| 2026-04-30 09:59 | 31.33531 | 121.63549 | 10492 ft | 295 kts | 274° |
| 2026-04-30 10:00 | 31.33096 | 121.58854 | 11316 ft | 299 kts | 261° |
| 2026-04-30 10:00 | 31.32609 | 121.56475 | 12185 ft | 310 kts | 260° |
| 2026-04-30 10:01 | 31.31593 | 121.51210 | 14344 ft | 338 kts | 261° |
| 2026-04-30 10:01 | 31.31107 | 121.48505 | 15579 ft | 342 kts | 261° |
| 2026-04-30 10:01 | 31.30635 | 121.45790 | 16921 ft | 342 kts | 262° |
| 2026-04-30 10:02 | 31.29704 | 121.40243 | 18745 ft | 349 kts | 262° |
| 2026-04-30 10:02 | 31.29240 | 121.37448 | 19105 ft | 350 kts | 262° |
| 2026-04-30 10:02 | 31.28628 | 121.34683 | 19454 ft | 354 kts | 254° |
| 2026-04-30 10:02 | 31.27417 | 121.32145 | 19687 ft | 365 kts | 238° |
| 2026-04-30 10:03 | 31.25624 | 121.29992 | 19743 ft | 374 kts | 229° |
| 2026-04-30 10:03 | 31.23600 | 121.28051 | 19759 ft | 378 kts | 226° |
| 2026-04-30 10:03 | 31.21518 | 121.26178 | 20746 ft | 376 kts | 226° |
| 2026-04-30 10:03 | 31.19458 | 121.24323 | 20777 ft | 365 kts | 226° |
| 2026-04-30 10:04 | 31.17420 | 121.22436 | 21084 ft | 381 kts | 227° |
| 2026-04-30 10:04 | 31.15350 | 121.20479 | 22097 ft | 383 kts | 228° |
| 2026-04-30 10:04 | 31.13290 | 121.18525 | 23326 ft | 380 kts | 229° |
| 2026-04-30 10:04 | 31.11261 | 121.16591 | 24349 ft | 382 kts | 229° |
| 2026-04-30 10:05 | 31.09200 | 121.14612 | 25308 ft | 384 kts | 230° |
| 2026-04-30 10:05 | 31.07314 | 121.12407 | 26247 ft | 374 kts | 240° |
| 2026-04-30 10:05 | 31.06060 | 121.09844 | 27200 ft | 366 kts | 252° |
| 2026-04-30 10:05 | 31.05253 | 121.07021 | 28093 ft | 367 kts | 257° |
| 2026-04-30 10:06 | 31.04609 | 121.04119 | 29012 ft | 371 kts | 258° |
| 2026-04-30 10:06 | 31.03987 | 121.01188 | 29898 ft | 375 kts | 258° |
| 2026-04-30 10:06 | 31.03337 | 120.98224 | 30629 ft | 379 kts | 258° |
| 2026-04-30 10:06 | 31.02654 | 120.95236 | 31300 ft | 383 kts | 258° |
| 2026-04-30 10:07 | 31.01943 | 120.92221 | 31961 ft | 386 kts | 258° |
| 2026-04-30 10:07 | 31.01218 | 120.89218 | 32774 ft | 384 kts | 257° |
| 2026-04-30 10:07 | 31.00490 | 120.86236 | 33635 ft | 381 kts | 257° |
| 2026-04-30 10:07 | 30.99766 | 120.83288 | 34401 ft | 375 kts | 257° |
| 2026-04-30 10:08 | 30.99056 | 120.80409 | 35020 ft | 375 kts | 257° |
| 2026-04-30 10:08 | 30.98335 | 120.77478 | 35564 ft | 376 kts | 257° |
| 2026-04-30 10:08 | 30.97611 | 120.74542 | 36084 ft | 378 kts | 257° |
| 2026-04-30 10:08 | 30.96883 | 120.71592 | 36607 ft | 379 kts | 256° |
| 2026-04-30 10:09 | 30.96151 | 120.68632 | 37117 ft | 381 kts | 256° |
| 2026-04-30 10:09 | 30.95416 | 120.65662 | 37620 ft | 382 kts | 256° |
| 2026-04-30 10:09 | 30.94678 | 120.62684 | 38122 ft | 384 kts | 256° |
| 2026-04-30 10:09 | 30.93935 | 120.59691 | 38608 ft | 385 kts | 256° |
| 2026-04-30 10:10 | 30.93188 | 120.56684 | 39001 ft | 386 kts | 256° |
| 2026-04-30 10:10 | 30.92442 | 120.53685 | 39336 ft | 386 kts | 256° |
| 2026-04-30 10:10 | 30.91695 | 120.50687 | 39674 ft | 385 kts | 256° |
| 2026-04-30 10:10 | 30.90874 | 120.47714 | 40019 ft | 385 kts | 252° |
| 2026-04-30 10:11 | 30.89757 | 120.44864 | 40219 ft | 389 kts | 245° |
| 2026-04-30 10:11 | 30.86190 | 120.40023 | 40261 ft | 403 kts | 227° |
| 2026-04-30 10:12 | 30.81563 | 120.36163 | 40286 ft | 412 kts | 223° |
| 2026-04-30 10:12 | 30.76826 | 120.32416 | 40290 ft | 411 kts | 224° |
| 2026-04-30 10:13 | 30.72177 | 120.28634 | 40287 ft | 411 kts | 224° |
| 2026-04-30 10:13 | 30.67519 | 120.24787 | 40225 ft | 410 kts | 224° |
| 2026-04-30 10:14 | 30.62903 | 120.20967 | 40286 ft | 406 kts | 225° |
| 2026-04-30 10:14 | 30.56014 | 120.15262 | 40289 ft | 405 kts | 225° |
| 2026-04-30 10:15 | 30.51431 | 120.11474 | 40290 ft | 405 kts | 225° |
| 2026-04-30 10:15 | 30.46817 | 120.07668 | 40240 ft | 408 kts | 224° |
| 2026-04-30 10:16 | 30.41976 | 120.04168 | 40289 ft | 411 kts | 221° |
| 2026-04-30 10:17 | 30.34568 | 119.99254 | 40296 ft | 411 kts | 220° |
| 2026-04-30 10:17 | 30.27136 | 119.94304 | 40300 ft | 411 kts | 220° |
| 2026-04-30 10:18 | 30.22186 | 119.90997 | 40296 ft | 411 kts | 220° |
| 2026-04-30 10:19 | 30.14764 | 119.86043 | 40293 ft | 410 kts | 220° |
| 2026-04-30 10:19 | 30.10650 | 119.83300 | 40298 ft | 410 kts | 220° |
| 2026-04-30 10:20 | 30.04848 | 119.79430 | 40244 ft | 413 kts | 221° |
| 2026-04-30 10:20 | 29.97440 | 119.74441 | 40293 ft | 410 kts | 221° |
| 2026-04-30 10:21 | 29.92517 | 119.71115 | 40293 ft | 410 kts | 221° |
| 2026-04-30 10:21 | 29.88431 | 119.68356 | 40289 ft | 409 kts | 221° |
| 2026-04-30 10:22 | 29.83553 | 119.64985 | 40226 ft | 406 kts | 224° |
| 2026-04-30 10:22 | 29.78909 | 119.61385 | 40291 ft | 401 kts | 225° |
| 2026-04-30 10:23 | 29.74350 | 119.57751 | 40286 ft | 400 kts | 225° |
| 2026-04-30 10:23 | 29.69754 | 119.54103 | 40294 ft | 401 kts | 225° |
| 2026-04-30 10:24 | 29.65145 | 119.50462 | 40297 ft | 403 kts | 225° |
| 2026-04-30 10:24 | 29.60954 | 119.46379 | 40260 ft | 388 kts | 235° |
| 2026-04-30 10:25 | 29.57375 | 119.41794 | 40298 ft | 385 kts | 237° |
| 2026-04-30 10:25 | 29.53848 | 119.37174 | 40300 ft | 385 kts | 237° |
| 2026-04-30 10:26 | 29.50282 | 119.32586 | 40299 ft | 385 kts | 237° |
| 2026-04-30 10:26 | 29.46716 | 119.28037 | 40302 ft | 385 kts | 237° |
| 2026-04-30 10:27 | 29.43124 | 119.23469 | 40249 ft | 386 kts | 237° |
| 2026-04-30 10:27 | 29.39517 | 119.18886 | 40302 ft | 387 kts | 237° |
| 2026-04-30 10:28 | 29.35902 | 119.14303 | 40302 ft | 387 kts | 237° |
| 2026-04-30 10:28 | 29.32284 | 119.09734 | 40304 ft | 387 kts | 237° |
| 2026-04-30 10:29 | 29.28666 | 119.05171 | 40304 ft | 387 kts | 237° |
| 2026-04-30 10:29 | 29.25048 | 119.00607 | 40306 ft | 387 kts | 236° |
| 2026-04-30 10:30 | 29.21423 | 118.96045 | 40300 ft | 388 kts | 236° |
| 2026-04-30 10:30 | 29.17792 | 118.91482 | 40309 ft | 388 kts | 236° |
| 2026-04-30 10:31 | 29.14155 | 118.86916 | 40299 ft | 388 kts | 236° |
| 2026-04-30 10:31 | 29.10516 | 118.82352 | 40281 ft | 389 kts | 236° |
| 2026-04-30 10:32 | 29.06866 | 118.77782 | 40303 ft | 389 kts | 237° |
| 2026-04-30 10:32 | 29.03252 | 118.73261 | 40276 ft | 387 kts | 236° |
| 2026-04-30 10:33 | 28.99603 | 118.68690 | 40302 ft | 390 kts | 236° |
| 2026-04-30 10:33 | 28.95936 | 118.64110 | 40313 ft | 391 kts | 236° |
| 2026-04-30 10:34 | 28.92269 | 118.59536 | 40308 ft | 391 kts | 236° |
| 2026-04-30 10:34 | 28.88593 | 118.54956 | 40311 ft | 391 kts | 236° |
| 2026-04-30 10:35 | 28.85540 | 118.51158 | 40305 ft | 391 kts | 236° |
| 2026-04-30 10:35 | 28.81239 | 118.45806 | 40299 ft | 392 kts | 235° |
| 2026-04-30 10:36 | 28.77551 | 118.41226 | 40304 ft | 392 kts | 235° |
| 2026-04-30 10:36 | 28.73859 | 118.36648 | 40316 ft | 392 kts | 236° |
| 2026-04-30 10:37 | 28.70156 | 118.32059 | 40307 ft | 394 kts | 235° |
| 2026-04-30 10:37 | 28.66441 | 118.27476 | 40309 ft | 394 kts | 235° |
| 2026-04-30 10:38 | 28.62718 | 118.22895 | 40291 ft | 394 kts | 234° |
| 2026-04-30 10:38 | 28.59004 | 118.18316 | 40305 ft | 394 kts | 234° |
| 2026-04-30 10:39 | 28.55313 | 118.13766 | 40305 ft | 394 kts | 234° |
| 2026-04-30 10:39 | 28.51601 | 118.09192 | 40308 ft | 394 kts | 234° |
| 2026-04-30 10:40 | 28.47881 | 118.04614 | 40309 ft | 394 kts | 235° |
| 2026-04-30 10:40 | 28.44155 | 118.00032 | 40304 ft | 395 kts | 234° |
| 2026-04-30 10:41 | 28.40395 | 117.95467 | 40312 ft | 397 kts | 233° |
| 2026-04-30 10:41 | 28.36568 | 117.90944 | 40301 ft | 397 kts | 233° |
| 2026-04-30 10:42 | 28.32731 | 117.86425 | 40316 ft | 397 kts | 233° |
| 2026-04-30 10:42 | 28.28898 | 117.81906 | 40314 ft | 397 kts | 233° |
| 2026-04-30 10:43 | 28.25065 | 117.77387 | 40320 ft | 397 kts | 233° |
| 2026-04-30 10:43 | 28.21231 | 117.72872 | 40303 ft | 397 kts | 233° |
| 2026-04-30 10:44 | 28.17395 | 117.68359 | 40315 ft | 397 kts | 233° |
| 2026-04-30 10:44 | 28.13561 | 117.63853 | 40314 ft | 397 kts | 233° |
| 2026-04-30 10:45 | 28.09720 | 117.59344 | 40315 ft | 397 kts | 233° |
| 2026-04-30 10:45 | 28.05878 | 117.54840 | 40300 ft | 398 kts | 233° |
| 2026-04-30 10:46 | 28.02031 | 117.50346 | 40274 ft | 399 kts | 233° |
| 2026-04-30 10:46 | 27.98144 | 117.45799 | 40308 ft | 403 kts | 233° |
| 2026-04-30 10:47 | 27.94243 | 117.41242 | 40310 ft | 403 kts | 233° |
| 2026-04-30 10:47 | 27.90336 | 117.36680 | 40309 ft | 404 kts | 233° |